Preview of NWS' New Version of Forecast
This preview is not operational and should not be used for support decisions.
Latest weather observations around

CW5634 Ponderosa (C5634)

Using English Units (Switch to International System of Units)
Date/ Time (PDT) Wind (mph) Vis. (mi) Weather Sky Cond. Temp (°F) Rel. Humidity Wind Chill (°F) Heat Index (°F) Pressure Precip. (in)
Air Dwpt 6 hour Altimeter (inHg) Sea level (inHg) 1 hr 3 hr 6 hr
Max Min
Jun 21 10:30 E 8   Clear   100 40     13%   95          
Jun 21 10:00 ESE 4   Clear   98 42     15%   94          
Jun 21 09:30 SE 2   Clear   96 44     17%   92          
Jun 21 09:00 S 4   Clear   94 43     17%   90          
Jun 21 08:30 ESE 4   Clear   93 43     18%   89          
Jun 21 08:00 S 2   Clear   91 42     18%   87          
Jun 21 07:30 Calm   Clear   90 42     19%   86          
Jun 21 07:00 Calm   Clear   87 42     21%   84          
Jun 21 06:30 Calm   Clear   86 41     21%   83          
Jun 21 06:00 S 7   Clear   88 41     19%   84          
Jun 21 05:01 S 2   Clear   89 40     18%   85          
Jun 21 04:31 SSW 3   Clear   88 38     17%   84          
Jun 21 04:01 Calm   Clear   89 37     16%   85          
Jun 21 03:31 Calm   Clear   90 38     16%   86          
Jun 21 03:01 SSW 1   Clear   92 38     15%   88          
Jun 21 02:31 SSW 1   Clear   93 38     15%   89          
Jun 21 02:01 SW 1   Clear   93 38     15%   89          
Jun 21 01:31 SSW 4   Clear   94 38     14%   90          
Jun 21 01:01 SSW 4   Clear   94 36     13%   89          
Jun 21 00:31 ESE 1   Clear   95 32     11%   90          
Jun 21 00:01 S 2   Clear   96 31     10%   90          
Jun 20 23:31 SSW 1   Clear   96 31     10%   90          
Jun 20 23:01 Calm   Clear   96 31     10%   90          
Jun 20 22:31 Calm   Clear   98 30     9%   92          
Jun 20 22:01 Calm   Clear   102 30     8%   95          
Jun 20 21:31 S 3   Clear   103 27     7%   96          
Jun 20 21:01 Calm   Clear   102 26     7%   95          
Jun 20 20:31 Calm   Clear   103 27     7%   96          
Jun 20 20:01 Calm   Clear   104 28     7%   97          
Jun 20 19:31 Calm   Clear   107 26     6%   99          
Jun 20 19:01 SE 1   Clear   110 28     6%   102          
Jun 20 18:31 SSW 3   Clear   111 29     6%   103          
Jun 20 18:01 Calm   Clear   112 30     6%   104          
Jun 20 17:31 SE 3   Clear   113 30     6%   105          
Jun 20 17:01 SE 1   Clear   113 30     6%   105          
Jun 20 16:31 S 2   Clear   112 25     5%   104          
Jun 20 16:01 SE 4   Clear   113 26     5%   104          
Jun 20 15:31 Calm   Clear   113 26     5%   104          
Jun 20 15:01 Calm   Clear   113 26     5%   104          
Jun 20 14:31 Calm   Clear   113 26     5%   104          
Jun 20 14:01 SSE 2   Clear   112 25     5%   104          
Jun 20 13:31 E 1   Clear   110 32     7%   102          
Jun 20 13:01 SSE 2   Clear   110 32     7%   102          
Jun 20 12:31 NE 2   Clear   108 31     7%   101          
Jun 20 12:01 WNW 1   Clear   105 32     8%   98          
Jun 20 11:31 Calm   Clear   103 33     9%   97          
Jun 20 11:01 S 2   Clear   101 34     10%   95          
Jun 20 10:31 Calm   Clear   98 32     10%   92          
Jun 20 10:01 Calm   Clear   95 32     11%   90          
Jun 20 09:31 ESE 4   Clear   93 31     11%   88          
Jun 20 09:01 Calm   Clear   91 31     12%   87          
Jun 20 08:31 Calm   Clear   89 32     13%   85          
Jun 20 08:01 Calm   Clear   87 32     14%   83          
Jun 20 07:31 Calm   Clear   87 32     14%   83          
Jun 20 07:01 Calm   Clear   86 33     15%   83          
Jun 20 06:31 Calm   Clear   81 33     18%   80          
Jun 20 06:01 Calm   Clear   80 28     15%   78          
Jun 20 05:00 Calm   Clear   80 28     15%   78          
Jun 20 04:30 Calm   Clear   81 29     15%   80          
Jun 20 04:00 Calm   Clear   81 29     15%   80          
Jun 20 03:30 Calm   Clear   83 27     13%   80          
Jun 20 03:00 Calm   Clear   84 28     13%   81          
Jun 20 02:30 Calm   Clear   85 27     12%   82          
Jun 20 02:00 Calm   Clear   88 29     12%   84          
Jun 20 01:30 Calm   Clear   87 28     12%   83          
Jun 20 01:00 Calm   Clear   88 27     11%   84          
Jun 20 00:30 Calm   Clear   88 27     11%   84          
Jun 20 00:00 Calm   Clear   91 27     10%   86          
Jun 19 23:30 SW 3   Clear   94 29     10%   89          
Jun 19 23:00 Calm   Clear   91 24     9%   86          
Jun 19 22:30 Calm   Clear   92 25     9%   87          
Jun 19 22:00 Calm   Clear   92 25     9%   87          
Jun 19 21:30 Calm   Clear   93 26     9%   88          
Jun 19 21:00 Calm   Clear   94 27     9%   88          
Jun 19 20:30 Calm   Clear   96 25     8%   90          
Jun 19 20:00 Calm   Clear   98 23     7%   91          
Jun 19 19:30 Calm   Clear   101 26     7%   94          
Jun 19 19:00 SE 1   Clear   103 23     6%   95          
Jun 19 18:30 SSE 2   Clear   104 24     6%   96          
Jun 19 18:00 SE 3   Clear   105 25     6%   97          
Jun 19 17:30 SE 2   Clear   105 25     6%   97          
Jun 19 17:00 N 1   Clear   105 25     6%   97          
Jun 19 16:30 SE 3   Clear   105 25     6%   97          
Jun 19 16:00 SSW 2   Clear   106 25     6%   98          
Jun 19 15:30 ESE 3   Clear   105 25     6%   97          
Jun 19 15:00 Calm   Clear   105 25     6%   97          
Jun 19 14:30 Calm   Clear   105 29     7%   98          
Jun 19 14:00 SSE 1   Clear   104 28     7%   97          
Jun 19 13:30 ENE 6   Clear   102 26     7%   95          
Jun 19 13:00 Calm   Clear   102 30     8%   95          
Jun 19 12:30 Calm   Clear   98 30     9%   92          
Jun 19 12:00 SSW 3   Clear   98 30     9%   92          
Jun 19 11:30 ESE 2   Clear   96 28     9%   90          
Jun 19 11:00 SE 1   Clear   94 29     10%   89          
Jun 19 10:30 ESE 1   Clear   91 29     11%   86          
Jun 19 10:00 ESE 2   Clear   89 30     12%   85          
Jun 19 09:30 Calm   Clear   87 28     12%   83          
Jun 19 09:00 E 1   Clear   85 29     13%   82          
Jun 19 08:30 SE 2   Clear   84 26     12%   81          
Jun 19 08:00 Calm   Clear   83 25     12%   80          
Jun 19 07:30 Calm   Clear   80 27     14%   78          
Jun 19 07:00 Calm   Clear   78 27     15%   76          
Jun 19 06:30 Calm   Clear   74 28     18%   72          
Jun 19 06:00 Calm   Clear   74 26     17%   72          
Jun 19 05:00 Calm   Clear   75 26     16%   73          
Jun 19 04:30 Calm   Clear   75 24     15%   73          
Jun 19 04:00 Calm   Clear   75 24     15%   73          
Jun 19 03:30 Calm   Clear   76 25     15%   74          
Jun 19 03:00 Calm   Clear   78 27     15%   76          
Jun 19 02:30 Calm   Clear   80 27     14%   78          
Jun 19 02:00 Calm   Clear   80 27     14%   78          
Jun 19 01:30 Calm   Clear   82 26     13%   80          
Jun 19 01:00 Calm   Clear   82 26     13%   80          
Jun 19 00:30 Calm   Clear   82 26     13%   80          
Jun 19 00:01 Calm   Clear   83 25     12%   80          
Jun 18 23:30 Calm   Clear   83 25     12%   80          
Jun 18 23:01 Calm   Clear   84 24     11%   81          
Jun 18 22:30 Calm   Clear   87 24     10%   83          
Jun 18 22:01 SSW 1   Clear   89 25     10%   84          
Jun 18 21:30 S 4   Clear   90 26     10%   85          
Jun 18 21:01 S 2   Clear   91 27     10%   86          
Jun 18 20:30 SSE 2   Clear   91 27     10%   86          
Jun 18 20:01 SE 2   Clear   92 28     10%   87          
Jun 18 19:30 S 3   Clear   94 29     10%   89          
Jun 18 19:00 SE 4   Clear   95 27     9%   89          
Jun 18 18:30 S 3   Clear   96 28     9%   90          
Jun 18 18:01 SSE 4   Clear   97 29     9%   91          
Jun 18 17:30 Calm   Clear   97 29     9%   91          
Jun 18 17:00 SE 3   Clear   98 30     9%   92          
Jun 18 16:30 SSE 4   Clear   98 32     10%   92          
Jun 18 16:01 ENE 3   Clear   97 34     11%   92          
Jun 18 15:30 Calm   Clear   97 34     11%   92          
Jun 18 15:01 E 6   Clear   97 34     11%   92          
Jun 18 14:30 S 5   Clear   97 34     11%   92          
Jun 18 14:01 SSW 5   Clear   95 34     12%   90          
Jun 18 13:30 S 3   Clear   94 34     12%   89          
Jun 18 13:01 SSW 6   Clear   93 35     13%   89          
Jun 18 12:30 S 5   Clear   92 36     14%   88          
Jun 18 12:00 ESE 7   Clear   91 37     15%   87          
Jun 18 11:30 S 4   Clear   89 37     16%   85          
Jun 18 11:00 SE 8   Clear   88 39     18%   84          
May 14 09:30 S 3   Clear   79 38     23%   78          
May 14 03:31 SSE 2   Clear   73 33     23%   71          
May 13 19:01 E 4   Clear   83 31     15%   80          
May 11 23:31 WSW 6   Clear   79 39     24%   78          
May 11 22:31 S 7   Clear   83 36     19%   81          
May 11 20:01     Clear   88 35     15%   84          
May 11 16:31     Clear   96 35     12%   91